sensor_id;sensor_type;location;lat;lon;timestamp;P1;durP1;ratioP1;P2;durP2;ratioP2
70363;SDS011;57785;43.898;1.886;2022-11-20T06:08:03;12.65;;;7.20;;
70363;SDS011;57785;43.898;1.886;2022-11-20T06:10:29;12.75;;;7.45;;
70363;SDS011;57785;43.898;1.886;2022-11-20T06:12:57;14.02;;;8.15;;
70363;SDS011;57785;43.898;1.886;2022-11-20T06:15:23;14.43;;;7.88;;
70363;SDS011;57785;43.898;1.886;2022-11-20T06:17:52;16.60;;;8.40;;
70363;SDS011;57785;43.898;1.886;2022-11-20T06:20:18;13.90;;;7.88;;
70363;SDS011;57785;43.898;1.886;2022-11-20T06:22:44;16.08;;;7.72;;
70363;SDS011;57785;43.898;1.886;2022-11-20T06:25:10;13.38;;;7.57;;
70363;SDS011;57785;43.898;1.886;2022-11-20T06:27:36;13.05;;;7.50;;
70363;SDS011;57785;43.898;1.886;2022-11-20T06:30:03;14.98;;;7.75;;
70363;SDS011;57785;43.898;1.886;2022-11-20T06:32:29;14.88;;;7.85;;
70363;SDS011;57785;43.898;1.886;2022-11-20T06:34:55;12.25;;;6.93;;
70363;SDS011;57785;43.898;1.886;2022-11-20T06:37:21;11.80;;;6.97;;
70363;SDS011;57785;43.898;1.886;2022-11-20T06:39:48;15.23;;;7.40;;
70363;SDS011;57785;43.898;1.886;2022-11-20T06:42:14;13.07;;;7.45;;
70363;SDS011;57785;43.898;1.886;2022-11-20T06:44:40;11.63;;;6.88;;
70363;SDS011;57785;43.898;1.886;2022-11-20T06:47:06;14.63;;;7.15;;
70363;SDS011;57785;43.898;1.886;2022-11-20T06:49:32;13.23;;;7.30;;
70363;SDS011;57785;43.898;1.886;2022-11-20T06:51:59;14.77;;;7.75;;
70363;SDS011;57785;43.898;1.886;2022-11-20T06:54:25;11.23;;;6.78;;
70363;SDS011;57785;43.898;1.886;2022-11-20T06:56:51;11.77;;;6.97;;
70363;SDS011;57785;43.898;1.886;2022-11-20T06:59:17;11.63;;;6.78;;
70363;SDS011;57785;43.898;1.886;2022-11-20T07:01:43;13.63;;;7.05;;
70363;SDS011;57785;43.898;1.886;2022-11-20T07:04:09;11.65;;;6.72;;
70363;SDS011;57785;43.898;1.886;2022-11-20T07:06:35;11.45;;;6.90;;
70363;SDS011;57785;43.898;1.886;2022-11-20T07:09:02;11.55;;;7.05;;
70363;SDS011;57785;43.898;1.886;2022-11-20T07:11:28;13.32;;;6.90;;
70363;SDS011;57785;43.898;1.886;2022-11-20T07:13:54;13.43;;;6.88;;
70363;SDS011;57785;43.898;1.886;2022-11-20T07:16:20;13.98;;;6.93;;
70363;SDS011;57785;43.898;1.886;2022-11-20T07:18:46;12.60;;;6.60;;
70363;SDS011;57785;43.898;1.886;2022-11-20T07:21:12;11.82;;;6.85;;
70363;SDS011;57785;43.898;1.886;2022-11-20T07:23:38;9.77;;;6.20;;
70363;SDS011;57785;43.898;1.886;2022-11-20T07:26:04;14.10;;;6.60;;
70363;SDS011;57785;43.898;1.886;2022-11-20T07:28:31;11.88;;;6.53;;
70363;SDS011;57785;43.898;1.886;2022-11-20T07:30:57;15.30;;;6.53;;
70363;SDS011;57785;43.898;1.886;2022-11-20T07:33:23;10.75;;;6.70;;
70363;SDS011;57785;43.898;1.886;2022-11-20T07:35:49;14.73;;;6.68;;
70363;SDS011;57785;43.898;1.886;2022-11-20T07:38:15;12.27;;;6.13;;
70363;SDS011;57785;43.898;1.886;2022-11-20T07:40:41;11.23;;;6.45;;
70363;SDS011;57785;43.898;1.886;2022-11-20T07:43:07;10.32;;;6.15;;
70363;SDS011;57785;43.898;1.886;2022-11-20T07:45:33;11.20;;;6.43;;
70363;SDS011;57785;43.898;1.886;2022-11-20T07:47:59;14.63;;;6.90;;
70363;SDS011;57785;43.898;1.886;2022-11-20T07:50:25;13.95;;;6.85;;
